createdAt,value
2022-10-28T00:02:07.144Z,0
2022-10-28T00:07:19.334Z,0
2022-10-28T00:12:31.319Z,0
2022-10-28T00:17:43.183Z,0
2022-10-28T00:22:55.194Z,0
2022-10-28T00:28:07.064Z,0
2022-10-28T00:33:19.042Z,0
2022-10-28T00:38:31.175Z,0
2022-10-28T00:43:42.882Z,0
2022-10-28T00:48:54.750Z,0
2022-10-28T00:54:06.851Z,0
2022-10-28T00:59:18.780Z,0
2022-10-28T01:04:30.809Z,0
2022-10-28T01:09:42.807Z,0
2022-10-28T01:14:54.734Z,0
2022-10-28T01:20:06.712Z,0
2022-10-28T01:25:18.775Z,0
2022-10-28T01:30:30.456Z,0
2022-10-28T01:35:42.525Z,0
2022-10-28T01:40:54.513Z,0
2022-10-28T01:46:06.323Z,0
2022-10-28T01:51:19.351Z,0
2022-10-28T01:56:31.233Z,0
2022-10-28T02:01:44.414Z,0
2022-10-28T02:06:56.282Z,0
2022-10-28T02:12:08.145Z,0
2022-10-28T02:17:20.154Z,0
2022-10-28T02:22:31.881Z,0
2022-10-28T02:27:43.776Z,0
2022-10-28T02:32:56.868Z,0
2022-10-28T02:38:08.262Z,0
2022-10-28T02:43:20.287Z,0
2022-10-28T02:48:32.052Z,0
2022-10-28T02:53:43.886Z,0
2022-10-28T02:58:55.767Z,0
2022-10-28T03:04:07.531Z,0
2022-10-28T03:09:19.386Z,0
2022-10-28T03:14:31.442Z,0
2022-10-28T03:19:42.980Z,0
2022-10-28T03:24:54.895Z,0
2022-10-28T03:30:06.698Z,0
2022-10-28T03:35:18.723Z,0
2022-10-28T03:40:30.589Z,0
2022-10-28T03:45:42.699Z,0
2022-10-28T03:50:54.303Z,0
2022-10-28T03:56:06.102Z,0
2022-10-28T04:01:18.998Z,0
2022-10-28T04:06:30.743Z,0
2022-10-28T04:11:42.443Z,0
2022-10-28T04:16:54.296Z,0
2022-10-28T04:22:06.344Z,0
2022-10-28T04:27:18.172Z,0
2022-10-28T04:32:30.099Z,0
2022-10-28T04:42:54.946Z,0
2022-10-28T04:48:06.896Z,0
2022-10-28T04:53:18.726Z,0
2022-10-28T04:58:30.643Z,0
2022-10-28T05:03:42.399Z,0
2022-10-28T05:08:54.270Z,0
2022-10-28T05:14:06.095Z,0
2022-10-28T05:19:18.020Z,0
2022-10-28T05:24:29.914Z,0
2022-10-28T05:34:53.686Z,0
2022-10-28T05:40:05.403Z,0
2022-10-28T05:45:18.367Z,0
2022-10-28T05:50:30.052Z,0
2022-10-28T05:55:48.697Z,0
2022-10-28T06:00:59.506Z,0
2022-10-28T06:06:11.599Z,0
2022-10-28T06:11:21.889Z,0
2022-10-28T06:16:36.334Z,0
2022-10-28T06:21:47.533Z,0
2022-10-28T06:26:59.525Z,0
2022-10-28T06:32:11.456Z,0
2022-10-28T06:37:23.463Z,0
2022-10-28T06:42:35.332Z,0
2022-10-28T06:47:48.765Z,0
2022-10-28T06:53:00.991Z,0
2022-10-28T06:58:12.960Z,0
2022-10-28T07:03:24.685Z,0
2022-10-28T07:08:36.852Z,0
2022-10-28T07:13:49.869Z,0
2022-10-28T07:19:01.460Z,0
2022-10-28T07:24:13.348Z,0
2022-10-28T07:29:25.431Z,0
2022-10-28T07:34:37.384Z,0
2022-10-28T07:39:49.631Z,0
2022-10-28T07:45:01.644Z,0
2022-10-28T07:50:13.838Z,0
2022-10-28T07:55:25.749Z,0
2022-10-28T08:00:38.234Z,0
2022-10-28T08:05:50.375Z,0
2022-10-28T08:11:02.355Z,0
2022-10-28T08:16:14.385Z,0
2022-10-28T08:21:26.490Z,0
2022-10-28T08:26:38.596Z,0
2022-10-28T08:31:50.673Z,0
2022-10-28T08:37:03.133Z,0
2022-10-28T08:42:15.475Z,0
2022-10-28T08:47:27.738Z,0
2022-10-28T08:52:47.572Z,0
2022-10-28T08:58:04.155Z,0
2022-10-28T09:03:16.279Z,0
2022-10-28T09:08:28.518Z,0
2022-10-28T09:13:40.980Z,0
2022-10-28T09:18:53.238Z,0
2022-10-28T09:24:05.393Z,0
2022-10-28T09:29:17.692Z,0
2022-10-28T09:34:29.989Z,0
2022-10-28T09:39:42.113Z,0
2022-10-28T09:44:54.506Z,2
2022-10-28T09:50:06.763Z,3
2022-10-28T09:55:19.104Z,5
2022-10-28T10:00:31.596Z,6
2022-10-28T10:05:43.862Z,7
2022-10-28T10:10:56.202Z,7
2022-10-28T10:16:08.317Z,7
2022-10-28T10:21:20.568Z,8
2022-10-28T10:26:32.779Z,10
2022-10-28T10:31:45.127Z,11
2022-10-28T10:36:58.000Z,14
2022-10-28T10:42:10.431Z,14
2022-10-28T10:47:23.209Z,15
2022-10-28T10:52:35.758Z,19
2022-10-28T10:57:48.334Z,18
2022-10-28T11:03:01.408Z,24
2022-10-28T11:08:14.871Z,23
2022-10-28T11:13:30.121Z,36
2022-10-28T11:18:44.250Z,87
2022-10-28T11:23:57.787Z,83
2022-10-28T11:29:10.639Z,81
2022-10-28T11:34:23.380Z,79
2022-10-28T11:44:45.829Z,82
2022-10-28T11:50:03.326Z,78
2022-10-28T11:55:14.865Z,76
2022-10-28T12:00:27.787Z,76
2022-10-28T12:05:40.458Z,75
2022-10-28T12:16:03.871Z,76
2022-10-28T12:21:17.664Z,75
2022-10-28T12:26:30.512Z,72
2022-10-28T12:31:45.252Z,71
2022-10-28T12:36:57.593Z,73
2022-10-28T12:42:10.381Z,73
2022-10-28T12:47:23.491Z,72
2022-10-28T12:52:36.483Z,72
2022-10-28T13:08:09.947Z,79
2022-10-28T13:13:23.217Z,76
2022-10-28T13:34:07.885Z,77
2022-10-28T13:39:20.561Z,75
2022-10-28T13:54:53.840Z,86
2022-10-28T14:20:46.763Z,98
2022-10-28T14:25:59.044Z,99
2022-10-28T14:31:11.171Z,99
2022-10-28T14:36:23.502Z,99
2022-10-28T14:51:58.296Z,97
2022-10-28T14:57:10.708Z,94
2022-10-28T15:02:23.546Z,95
2022-10-28T15:12:46.075Z,95
2022-10-28T15:17:58.304Z,94
2022-10-28T15:23:10.423Z,94
2022-10-28T15:28:22.671Z,95
2022-10-28T15:38:44.945Z,88
2022-10-28T15:43:57.417Z,87
2022-10-28T15:49:09.616Z,84
2022-10-28T15:54:21.620Z,79
2022-10-28T15:59:33.790Z,73
2022-10-28T16:04:45.873Z,72
2022-10-28T16:15:08.280Z,62
2022-10-28T16:20:20.647Z,59
2022-10-28T16:25:32.703Z,56
2022-10-28T16:30:44.936Z,46
2022-10-28T16:35:57.045Z,40
2022-10-28T16:41:09.133Z,34
2022-10-28T16:46:21.316Z,29
2022-10-28T16:51:33.153Z,22
2022-10-28T16:56:45.195Z,20
2022-10-28T17:01:57.918Z,17
2022-10-28T17:07:10.157Z,15
2022-10-28T17:12:22.065Z,14
2022-10-28T17:17:34.667Z,13
2022-10-28T17:22:46.643Z,10
2022-10-28T17:27:59.423Z,7
2022-10-28T17:33:11.078Z,4
2022-10-28T17:38:23.113Z,2
2022-10-28T17:43:35.175Z,1
2022-10-28T17:48:47.089Z,1
2022-10-28T17:53:59.164Z,0
2022-10-28T17:59:11.294Z,0
2022-10-28T18:04:23.424Z,0
2022-10-28T18:09:35.295Z,0
2022-10-28T18:14:47.673Z,0
2022-10-28T18:19:59.850Z,0
2022-10-28T18:25:11.787Z,0
2022-10-28T18:30:23.834Z,0
2022-10-28T18:35:36.744Z,0
2022-10-28T18:40:48.604Z,0
2022-10-28T18:46:00.632Z,0
2022-10-28T18:51:13.134Z,0
2022-10-28T18:56:24.960Z,0
2022-10-28T19:01:37.685Z,0
2022-10-28T19:06:49.520Z,0
2022-10-28T19:12:01.654Z,0
2022-10-28T19:17:13.836Z,0
2022-10-28T19:22:26.413Z,0
2022-10-28T19:27:38.396Z,0
2022-10-28T19:32:50.147Z,0
2022-10-28T19:38:02.124Z,0
2022-10-28T19:43:13.861Z,0
2022-10-28T19:48:25.940Z,0
2022-10-28T19:53:37.871Z,0
2022-10-28T19:58:49.910Z,0
2022-10-28T20:04:01.759Z,0
2022-10-28T20:09:13.732Z,0
2022-10-28T20:14:32.257Z,0
2022-10-28T20:19:44.408Z,0
2022-10-28T20:24:59.417Z,0
2022-10-28T20:30:10.485Z,0
2022-10-28T20:35:22.351Z,0
2022-10-28T20:40:34.454Z,0
2022-10-28T20:45:46.262Z,0
2022-10-28T20:50:58.086Z,0
2022-10-28T20:56:10.067Z,0
2022-10-28T21:01:23.125Z,0
2022-10-28T21:06:35.023Z,0
2022-10-28T21:11:46.939Z,0
2022-10-28T21:16:58.877Z,0
2022-10-28T21:22:10.801Z,0
2022-10-28T21:27:22.619Z,0
2022-10-28T21:32:34.634Z,0
2022-10-28T21:37:46.726Z,0
2022-10-28T21:42:58.634Z,0
2022-10-28T21:48:10.283Z,0
2022-10-28T21:53:22.102Z,0
2022-10-28T21:58:33.985Z,0
2022-10-28T22:03:45.826Z,0
2022-10-28T22:08:57.678Z,0
2022-10-28T22:14:09.711Z,0
2022-10-28T22:19:21.602Z,0
2022-10-28T22:24:33.513Z,0
2022-10-28T22:29:45.742Z,0
2022-10-28T22:34:57.679Z,0
2022-10-28T22:40:09.827Z,0
2022-10-28T22:45:21.926Z,0
2022-10-28T22:50:33.782Z,0
2022-10-28T22:55:46.048Z,0
2022-10-28T23:00:57.831Z,0
2022-10-28T23:06:09.691Z,0
2022-10-28T23:11:21.798Z,0
2022-10-28T23:16:33.796Z,0
2022-10-28T23:21:45.649Z,0
2022-10-28T23:32:10.128Z,0
2022-10-28T23:37:21.777Z,0
2022-10-28T23:42:33.749Z,0
2022-10-28T23:47:45.852Z,0
2022-10-28T23:52:59.384Z,0
2022-10-28T23:58:10.687Z,0
